Time,TemperatureF,DewpointF,PressureIn,WindDirection,WindDirectionDegrees,WindSpeedMPH,WindSpeedGustMPH,Humidity,HourlyPrecipIn,Conditions,Clouds,dailyrainin,SolarRadiationWatts/m^2,SoftwareType,DateUTC
2013-03-16 00:03:00,46.0,35.0,-100.00,NW,322,1.0,4.0,64,0.00,,,0.00,0.000000,,2013-03-16 04:03:00,
2013-03-16 00:11:00,47.0,36.0,-100.00,ENE,75,3.0,5.0,65,0.00,,,0.00,0.000000,,2013-03-16 04:11:00,
2013-03-16 00:33:00,47.0,36.0,-100.00,ENE,75,3.0,5.0,65,0.00,,,0.00,0.000000,,2013-03-16 04:33:00,
2013-03-16 00:43:00,47.0,36.0,-100.00,ENE,75,3.0,5.0,65,0.00,,,0.00,0.000000,,2013-03-16 04:43:00,
2013-03-16 00:53:00,47.0,36.0,-100.00,ENE,75,3.0,5.0,65,0.00,,,0.00,0.000000,,2013-03-16 04:53:00,
2013-03-16 01:03:00,47.0,36.0,-100.00,ENE,75,3.0,5.0,65,0.00,,,0.00,0.000000,,2013-03-16 05:03:00,
2013-03-16 01:11:00,50.0,40.0,-100.00,East,85,1.0,14.0,69,0.00,,,0.00,0.000000,,2013-03-16 05:11:00,
2013-03-16 01:32:00,50.0,40.0,-100.00,East,85,1.0,14.0,69,0.00,,,0.00,0.000000,,2013-03-16 05:32:00,
2013-03-16 01:42:00,50.0,40.0,-100.00,East,85,1.0,14.0,69,0.00,,,0.00,0.000000,,2013-03-16 05:42:00,
2013-03-16 01:53:00,50.0,40.0,-100.00,East,85,1.0,14.0,69,0.00,,,0.00,0.000000,,2013-03-16 05:53:00,
2013-03-16 02:02:00,50.0,40.0,-100.00,East,85,1.0,14.0,69,0.00,,,0.00,0.000000,,2013-03-16 06:02:00,
2013-03-16 02:11:00,50.0,44.0,-100.00,East,81,2.0,7.0,80,0.01,,,0.01,0.000000,,2013-03-16 06:11:00,
2013-03-16 02:32:00,50.0,44.0,-100.00,East,81,2.0,7.0,80,0.01,,,0.01,0.000000,,2013-03-16 06:32:00,
2013-03-16 02:42:00,50.0,44.0,-100.00,East,81,2.0,7.0,80,0.01,,,0.01,0.000000,,2013-03-16 06:42:00,
2013-03-16 02:52:00,50.0,44.0,-100.00,East,81,2.0,7.0,80,0.01,,,0.01,0.000000,,2013-03-16 06:52:00,
2013-03-16 03:02:00,50.0,44.0,-100.00,East,81,2.0,7.0,80,0.01,,,0.01,0.000000,,2013-03-16 07:02:00,
2013-03-16 03:11:00,52.0,43.0,-100.00,ENE,64,4.0,9.0,70,0.00,,,0.01,0.000000,,2013-03-16 07:11:00,
2013-03-16 03:42:00,52.0,43.0,-100.00,ENE,64,4.0,9.0,70,0.00,,,0.01,0.000000,,2013-03-16 07:42:00,
2013-03-16 03:53:00,52.0,43.0,-100.00,ENE,64,4.0,9.0,70,0.00,,,0.01,0.000000,,2013-03-16 07:53:00,
2013-03-16 04:03:00,52.0,43.0,-100.00,ENE,64,4.0,9.0,70,0.00,,,0.01,0.000000,,2013-03-16 08:03:00,
2013-03-16 04:11:00,52.0,41.0,-100.00,NE,56,6.0,12.0,65,0.00,,,0.01,0.000000,,2013-03-16 08:11:00,
2013-03-16 04:42:00,52.0,41.0,-100.00,NE,56,6.0,12.0,65,0.00,,,0.01,0.000000,,2013-03-16 08:42:00,
2013-03-16 04:52:00,52.0,41.0,-100.00,NE,56,6.0,12.0,65,0.00,,,0.01,0.000000,,2013-03-16 08:52:00,
2013-03-16 05:02:00,52.0,41.0,-100.00,NE,56,6.0,12.0,65,0.00,,,0.01,0.000000,,2013-03-16 09:02:00,
2013-03-16 05:11:00,52.0,41.0,-100.00,ENE,57,6.0,15.0,65,0.00,,,0.01,0.000000,,2013-03-16 09:11:00,
2013-03-16 05:33:00,52.0,41.0,-100.00,ENE,57,6.0,15.0,65,0.00,,,0.01,0.000000,,2013-03-16 09:33:00,
2013-03-16 05:43:00,52.0,41.0,-100.00,ENE,57,6.0,15.0,65,0.00,,,0.01,0.000000,,2013-03-16 09:43:00,
2013-03-16 05:53:00,52.0,41.0,-100.00,ENE,57,6.0,15.0,65,0.00,,,0.01,0.000000,,2013-03-16 09:53:00,
2013-03-16 06:03:00,52.0,41.0,-100.00,ENE,57,6.0,15.0,65,0.00,,,0.01,0.000000,,2013-03-16 10:03:00,
2013-03-16 06:11:00,53.0,43.0,-100.00,ENE,63,7.0,16.0,68,0.00,,,0.01,0.000000,,2013-03-16 10:11:00,
2013-03-16 06:32:00,53.0,43.0,-100.00,ENE,63,7.0,16.0,68,0.00,,,0.01,0.000000,,2013-03-16 10:32:00,
2013-03-16 06:42:00,53.0,43.0,-100.00,ENE,63,7.0,16.0,68,0.00,,,0.01,0.000000,,2013-03-16 10:42:00,
2013-03-16 06:53:00,53.0,43.0,-100.00,ENE,63,7.0,16.0,68,0.00,,,0.01,0.000000,,2013-03-16 10:53:00,
2013-03-16 07:03:00,53.0,43.0,-100.00,ENE,63,7.0,16.0,68,0.00,,,0.01,0.000000,,2013-03-16 11:03:00,
2013-03-16 07:11:00,53.0,42.0,-100.00,ENE,59,6.0,18.0,66,0.00,,,0.01,0.000000,,2013-03-16 11:11:00,
2013-03-16 07:33:00,53.0,42.0,-100.00,ENE,59,6.0,18.0,66,0.00,,,0.01,0.000000,,2013-03-16 11:33:00,
2013-03-16 07:43:00,53.0,42.0,-100.00,ENE,59,6.0,18.0,66,0.00,,,0.01,0.000000,,2013-03-16 11:43:00,
2013-03-16 07:53:00,53.0,42.0,-100.00,ENE,59,6.0,18.0,66,0.00,,,0.01,0.000000,,2013-03-16 11:53:00,
2013-03-16 08:02:00,53.0,42.0,-100.00,ENE,59,6.0,18.0,66,0.00,,,0.01,0.000000,,2013-03-16 12:02:00,
2013-03-16 08:11:00,53.0,42.0,-100.00,ENE,59,6.0,16.0,65,0.00,,,0.01,13.000000,,2013-03-16 12:11:00,
2013-03-16 08:43:00,53.0,42.0,-100.00,ENE,59,6.0,16.0,65,0.00,,,0.01,13.000000,,2013-03-16 12:43:00,
2013-03-16 08:53:00,53.0,42.0,-100.00,ENE,59,6.0,16.0,65,0.00,,,0.01,13.000000,,2013-03-16 12:53:00,
2013-03-16 09:02:00,53.0,42.0,-100.00,ENE,59,6.0,16.0,65,0.00,,,0.01,13.000000,,2013-03-16 13:02:00,
2013-03-16 09:11:00,56.0,43.0,-100.00,ENE,59,6.0,17.0,61,0.00,,,0.01,148.000000,,2013-03-16 13:11:00,
2013-03-16 09:43:00,56.0,43.0,-100.00,ENE,59,6.0,17.0,61,0.00,,,0.01,148.000000,,2013-03-16 13:43:00,
2013-03-16 09:53:00,56.0,43.0,-100.00,ENE,59,6.0,17.0,61,0.00,,,0.01,148.000000,,2013-03-16 13:53:00,
2013-03-16 10:03:00,56.0,43.0,-100.00,ENE,59,6.0,17.0,61,0.00,,,0.01,148.000000,,2013-03-16 14:03:00,
2013-03-16 10:11:00,59.0,42.0,-100.00,NE,54,6.0,14.0,54,0.00,,,0.01,422.000000,,2013-03-16 14:11:00,
2013-03-16 10:42:00,59.0,42.0,-100.00,NE,54,6.0,14.0,54,0.00,,,0.01,422.000000,,2013-03-16 14:42:00,
2013-03-16 10:53:00,59.0,42.0,-100.00,NE,54,6.0,14.0,54,0.00,,,0.01,422.000000,,2013-03-16 14:53:00,
2013-03-16 11:03:00,59.0,42.0,-100.00,NE,54,6.0,14.0,54,0.00,,,0.01,422.000000,,2013-03-16 15:03:00,
2013-03-16 11:11:00,61.0,43.0,-100.00,ENE,66,7.0,16.0,51,0.00,,,0.01,653.000000,,2013-03-16 15:11:00,
2013-03-16 11:44:00,61.0,43.0,-100.00,ENE,66,7.0,16.0,51,0.00,,,0.01,653.000000,,2013-03-16 15:44:00,
2013-03-16 11:53:00,61.0,43.0,-100.00,ENE,66,7.0,16.0,51,0.00,,,0.01,653.000000,,2013-03-16 15:53:00,
2013-03-16 12:03:00,61.0,43.0,-100.00,ENE,66,7.0,16.0,51,0.00,,,0.01,653.000000,,2013-03-16 16:03:00,
2013-03-16 12:11:00,63.0,44.0,-100.00,NE,43,7.0,15.0,49,0.00,,,0.01,754.000000,,2013-03-16 16:11:00,
2013-03-16 12:43:00,63.0,44.0,-100.00,NE,43,7.0,15.0,49,0.00,,,0.01,754.000000,,2013-03-16 16:43:00,
2013-03-16 12:53:00,63.0,44.0,-100.00,NE,43,7.0,15.0,49,0.00,,,0.01,754.000000,,2013-03-16 16:53:00,
2013-03-16 13:03:00,63.0,44.0,-100.00,NE,43,7.0,15.0,49,0.00,,,0.01,754.000000,,2013-03-16 17:03:00,
2013-03-16 13:11:00,65.0,44.0,-100.00,NNE,27,6.0,15.0,47,0.00,,,0.01,799.000000,,2013-03-16 17:11:00,
2013-03-16 13:43:00,65.0,44.0,-100.00,NNE,27,6.0,15.0,47,0.00,,,0.01,799.000000,,2013-03-16 17:43:00,
2013-03-16 13:53:00,65.0,44.0,-100.00,NNE,27,6.0,15.0,47,0.00,,,0.01,799.000000,,2013-03-16 17:53:00,
2013-03-16 14:03:00,65.0,44.0,-100.00,NNE,27,6.0,15.0,47,0.00,,,0.01,799.000000,,2013-03-16 18:03:00,
2013-03-16 14:11:00,68.0,45.0,-100.00,NE,37,7.0,15.0,44,0.00,,,0.01,812.000000,,2013-03-16 18:11:00,
2013-03-16 14:33:00,68.0,45.0,-100.00,NE,37,7.0,15.0,44,0.00,,,0.01,812.000000,,2013-03-16 18:33:00,
2013-03-16 14:43:00,68.0,45.0,-100.00,NE,37,7.0,15.0,44,0.00,,,0.01,812.000000,,2013-03-16 18:43:00,
2013-03-16 14:53:00,68.0,45.0,-100.00,NE,37,7.0,15.0,44,0.00,,,0.01,812.000000,,2013-03-16 18:53:00,
2013-03-16 15:02:00,68.0,45.0,-100.00,NE,37,7.0,15.0,44,0.00,,,0.01,812.000000,,2013-03-16 19:02:00,
2013-03-16 15:11:00,69.0,44.0,-100.00,ENE,69,6.0,22.0,41,0.00,,,0.01,802.000000,,2013-03-16 19:11:00,
2013-03-16 15:42:00,69.0,44.0,-100.00,ENE,69,6.0,22.0,41,0.00,,,0.01,802.000000,,2013-03-16 19:42:00,
2013-03-16 15:53:00,69.0,44.0,-100.00,ENE,69,6.0,22.0,41,0.00,,,0.01,802.000000,,2013-03-16 19:53:00,
2013-03-16 16:03:00,69.0,44.0,-100.00,ENE,69,6.0,22.0,41,0.00,,,0.01,802.000000,,2013-03-16 20:03:00,
2013-03-16 16:11:00,67.0,44.0,-100.00,NE,48,6.0,17.0,43,0.00,,,0.01,472.000000,,2013-03-16 20:11:00,
2013-03-16 16:43:00,67.0,44.0,-100.00,NE,48,6.0,17.0,43,0.00,,,0.01,472.000000,,2013-03-16 20:43:00,
2013-03-16 16:53:00,67.0,44.0,-100.00,NE,48,6.0,17.0,43,0.00,,,0.01,472.000000,,2013-03-16 20:53:00,
2013-03-16 17:02:00,67.0,44.0,-100.00,NE,48,6.0,17.0,43,0.00,,,0.01,472.000000,,2013-03-16 21:02:00,
2013-03-16 17:11:00,57.0,39.0,-100.00,East,87,5.0,17.0,50,0.10,,,0.11,59.000000,,2013-03-16 21:11:00,
2013-03-16 17:43:00,57.0,39.0,-100.00,East,87,5.0,17.0,50,0.10,,,0.11,59.000000,,2013-03-16 21:43:00,
2013-03-16 17:53:00,57.0,39.0,-100.00,East,87,5.0,17.0,50,0.10,,,0.11,59.000000,,2013-03-16 21:53:00,
2013-03-16 18:03:00,57.0,39.0,-100.00,East,87,5.0,17.0,50,0.10,,,0.11,59.000000,,2013-03-16 22:03:00,
2013-03-16 18:11:00,57.0,54.0,-100.00,ENE,74,5.0,10.0,90,0.01,,,0.12,114.000000,,2013-03-16 22:11:00,
2013-03-16 18:33:00,57.0,54.0,-100.00,ENE,74,5.0,10.0,90,0.01,,,0.12,114.000000,,2013-03-16 22:33:00,
2013-03-16 18:42:00,57.0,54.0,-100.00,ENE,74,5.0,10.0,90,0.01,,,0.12,114.000000,,2013-03-16 22:42:00,
2013-03-16 18:53:00,57.0,54.0,-100.00,ENE,74,5.0,10.0,90,0.01,,,0.12,114.000000,,2013-03-16 22:53:00,
2013-03-16 19:02:00,57.0,54.0,-100.00,ENE,74,5.0,10.0,90,0.01,,,0.12,114.000000,,2013-03-16 23:02:00,
2013-03-16 19:11:00,58.0,49.0,-100.00,East,88,3.0,9.0,72,0.00,,,0.12,64.000000,,2013-03-16 23:11:00,
2013-03-16 19:42:00,58.0,49.0,-100.00,East,88,3.0,9.0,72,0.00,,,0.12,64.000000,,2013-03-16 23:42:00,
2013-03-16 19:53:00,58.0,49.0,-100.00,East,88,3.0,9.0,72,0.00,,,0.12,64.000000,,2013-03-16 23:53:00,
2013-03-16 20:02:00,58.0,49.0,-100.00,East,88,3.0,9.0,72,0.00,,,0.12,64.000000,,2013-03-17 00:02:00,
2013-03-16 21:11:00,56.0,48.0,-100.00,ENE,72,4.0,7.0,74,-99.99,,,0.12,0.000000,,2013-03-17 01:11:00,
2013-03-16 21:43:00,56.0,48.0,-100.00,ENE,72,4.0,7.0,74,-99.99,,,0.12,0.000000,,2013-03-17 01:43:00,
2013-03-16 21:53:00,56.0,48.0,-100.00,ENE,72,4.0,7.0,74,-99.99,,,0.12,0.000000,,2013-03-17 01:53:00,
2013-03-16 22:03:00,56.0,48.0,-100.00,ENE,72,4.0,7.0,74,-99.99,,,0.12,0.000000,,2013-03-17 02:03:00,
2013-03-16 22:11:00,56.0,46.0,-100.00,ENE,73,3.0,7.0,69,0.00,,,0.12,0.000000,,2013-03-17 02:11:00,
2013-03-16 22:43:00,56.0,46.0,-100.00,ENE,73,3.0,7.0,69,0.00,,,0.12,0.000000,,2013-03-17 02:43:00,
2013-03-16 22:53:00,56.0,46.0,-100.00,ENE,73,3.0,7.0,69,0.00,,,0.12,0.000000,,2013-03-17 02:53:00,
2013-03-16 23:03:00,56.0,46.0,-100.00,ENE,73,3.0,7.0,69,0.00,,,0.12,0.000000,,2013-03-17 03:03:00,
2013-03-16 23:11:00,55.0,47.0,-100.00,ENE,67,3.0,6.0,73,0.00,,,0.12,0.000000,,2013-03-17 03:11:00,
2013-03-16 23:34:00,55.0,47.0,-100.00,ENE,67,3.0,6.0,73,0.00,,,0.12,0.000000,,2013-03-17 03:34:00,
2013-03-16 23:43:00,55.0,47.0,-100.00,ENE,67,3.0,6.0,73,0.00,,,0.12,0.000000,,2013-03-17 03:43:00,
2013-03-16 23:53:00,55.0,47.0,-100.00,ENE,67,3.0,6.0,73,0.00,,,0.12,0.000000,,2013-03-17 03:53:00,